createdAt,value
2019-05-22T00:01:20.514Z,99332.05
2019-05-22T00:04:06.873Z,99328.08
2019-05-22T00:06:41.235Z,99326.62
2019-05-22T00:09:16.330Z,99319.52
2019-05-22T00:11:48.548Z,99328.32
2019-05-22T00:14:19.667Z,99329.51
2019-05-22T00:16:50.150Z,99322.07
2019-05-22T00:19:20.563Z,99329.62
2019-05-22T00:21:51.670Z,99327.36
2019-05-22T00:24:22.994Z,99333.72
2019-05-22T00:26:54.100Z,99334.31
2019-05-22T00:29:24.427Z,99331.67
2019-05-22T00:31:54.858Z,99337.30
2019-05-22T00:34:25.852Z,99330.45
2019-05-22T00:36:56.803Z,99333.83
2019-05-22T00:39:27.865Z,99322.67
2019-05-22T00:41:58.279Z,99327.81
2019-05-22T00:44:29.607Z,99329.48
2019-05-22T00:47:01.146Z,99329.48
2019-05-22T00:49:33.360Z,99326.14
2019-05-22T00:52:04.365Z,99329.46
2019-05-22T00:54:44.183Z,99318.06
2019-05-22T00:57:24.391Z,99321.20
2019-05-22T00:59:55.385Z,99319.98
2019-05-22T01:02:31.161Z,99330.80
2019-05-22T01:05:02.684Z,99319.50
2019-05-22T01:07:37.249Z,99322.13
2019-05-22T01:10:11.322Z,99321.05
2019-05-22T01:12:43.164Z,99328.63
2019-05-22T01:15:19.919Z,99332.21
2019-05-22T01:17:51.244Z,99333.85
2019-05-22T01:23:02.383Z,99340.31
2019-05-22T01:25:34.077Z,99341.78
2019-05-22T01:28:06.390Z,99340.84
2019-05-22T01:30:38.688Z,99346.91
2019-05-22T01:33:12.293Z,99345.91
2019-05-22T01:35:56.094Z,99341.64
2019-05-22T01:38:25.945Z,99344.50
2019-05-22T01:43:55.706Z,99350.70
2019-05-22T01:46:28.320Z,99350.02
2019-05-22T01:49:01.344Z,99348.29
2019-05-22T01:51:30.779Z,99350.45
2019-05-22T01:54:00.948Z,99348.16
2019-05-22T01:56:33.531Z,99352.98
2019-05-22T01:59:04.651Z,99355.32
2019-05-22T02:01:34.062Z,99350.95
2019-05-22T02:04:05.071Z,99356.95
2019-05-22T02:06:34.482Z,99354.27
2019-05-22T02:09:17.332Z,99351.72
2019-05-22T02:11:49.660Z,99344.87
2019-05-22T02:14:22.364Z,99346.23
2019-05-22T02:16:56.938Z,99355.99
2019-05-22T02:19:24.547Z,99353.75
2019-05-22T02:21:55.243Z,99365.30
2019-05-22T02:24:25.268Z,99367.81
2019-05-22T02:26:54.701Z,99368.70
2019-05-22T02:29:24.129Z,99369.53
2019-05-22T02:31:55.809Z,99366.48
2019-05-22T02:34:26.325Z,99367.30
2019-05-22T02:36:57.877Z,99372.53
2019-05-22T02:39:32.915Z,99374.77
2019-05-22T02:42:08.508Z,99367.75
2019-05-22T02:44:38.249Z,99369.96
2019-05-22T02:47:19.018Z,99369.75
2019-05-22T02:49:41.460Z,99372.17
2019-05-22T02:52:11.480Z,99362.30
2019-05-22T02:54:40.904Z,99357.27
2019-05-22T02:57:11.956Z,99361.36
2019-05-22T02:59:42.435Z,99360.33
2019-05-22T03:02:14.151Z,99353.16
2019-05-22T03:04:56.246Z,99359.86
2019-05-22T03:07:27.506Z,99356.88
2019-05-22T03:09:57.331Z,99361.80
2019-05-22T03:12:29.932Z,99359.20
2019-05-22T03:15:01.397Z,99358.20
2019-05-22T03:17:31.565Z,99364.07
2019-05-22T03:20:04.726Z,99362.13
2019-05-22T03:22:40.933Z,99366.97
2019-05-22T03:25:13.647Z,99367.02
2019-05-22T03:27:46.876Z,99366.02
2019-05-22T03:30:43.970Z,99369.91
2019-05-22T03:33:13.517Z,99378.88
2019-05-22T03:35:46.350Z,99382.74
2019-05-22T03:38:18.171Z,99378.84
2019-05-22T03:40:51.011Z,99389.93
2019-05-22T03:43:27.080Z,99387.13
2019-05-22T03:45:57.290Z,99392.36
2019-05-22T03:48:29.627Z,99393.41
2019-05-22T03:51:07.931Z,99384.99
2019-05-22T03:53:38.280Z,99384.63
2019-05-22T03:56:07.692Z,99392.88
2019-05-22T03:58:37.334Z,99392.88
2019-05-22T04:01:08.259Z,99394.00
2019-05-22T04:03:38.622Z,99389.86
2019-05-22T04:06:10.047Z,99395.62
2019-05-22T04:08:39.544Z,99400.13
2019-05-22T04:11:13.202Z,99392.30
2019-05-22T04:13:42.731Z,99390.13
2019-05-22T04:16:13.821Z,99391.34
2019-05-22T04:18:44.404Z,99392.48
2019-05-22T04:21:13.836Z,99396.50
2019-05-22T04:23:43.380Z,99402.45
2019-05-22T04:26:13.881Z,99406.83
2019-05-22T04:29:09.824Z,99409.06
2019-05-22T04:31:58.943Z,99405.59
2019-05-22T04:34:29.084Z,99405.80
2019-05-22T04:36:58.524Z,99394.03
2019-05-22T04:39:29.685Z,99409.00
2019-05-22T04:42:01.009Z,99414.59
2019-05-22T04:44:31.031Z,99411.21
2019-05-22T04:47:01.145Z,99412.45
2019-05-22T04:49:31.261Z,99419.92
2019-05-22T04:52:00.824Z,99409.83
2019-05-22T04:54:30.343Z,99405.59
2019-05-22T04:56:59.766Z,99398.08
2019-05-22T04:59:30.400Z,99391.33
2019-05-22T05:01:59.908Z,99393.58
2019-05-22T05:04:29.552Z,99386.97
2019-05-22T05:06:59.185Z,99384.86
2019-05-22T05:09:29.930Z,99389.09
2019-05-22T05:11:59.382Z,99385.03
2019-05-22T05:14:29.195Z,99397.18
2019-05-22T05:16:58.627Z,99395.66
2019-05-22T05:19:28.232Z,99396.64
2019-05-22T05:21:57.693Z,99390.34
2019-05-22T05:24:27.122Z,99373.55
2019-05-22T05:26:58.021Z,99378.52
2019-05-22T05:29:46.724Z,99367.11
2019-05-22T05:32:16.365Z,99367.11
2019-05-22T05:34:52.228Z,99375.72
2019-05-22T05:37:23.226Z,99393.72
2019-05-22T05:40:04.562Z,99393.72
2019-05-22T05:42:34.074Z,99388.84
2019-05-22T05:45:04.008Z,99387.84
2019-05-22T05:47:33.637Z,99392.47
2019-05-22T05:50:03.765Z,99392.47
2019-05-22T05:52:33.122Z,99401.09
2019-05-22T05:55:03.320Z,99400.03
2019-05-22T05:57:38.942Z,99397.91
2019-05-22T06:00:24.561Z,99411.61
2019-05-22T06:02:56.974Z,99402.59
2019-05-22T06:05:26.339Z,99413.29
2019-05-22T06:07:55.689Z,99408.77
2019-05-22T06:10:28.358Z,99409.28
2019-05-22T06:12:58.775Z,99409.28
2019-05-22T06:16:00.948Z,99406.44
2019-05-22T06:18:34.871Z,99415.28
2019-05-22T06:21:06.183Z,99415.28
2019-05-22T06:24:00.308Z,99417.89
2019-05-22T06:26:38.342Z,99410.11
2019-05-22T06:29:08.176Z,99410.11
2019-05-22T06:31:47.013Z,99405.03
2019-05-22T06:34:16.869Z,99405.86
2019-05-22T06:36:46.688Z,99405.86
2019-05-22T06:39:17.220Z,99400.15
2019-05-22T06:41:48.354Z,99390.80
2019-05-22T06:44:30.226Z,99390.80
2019-05-22T06:47:00.082Z,99384.66
2019-05-22T06:49:34.856Z,99393.43
2019-05-22T06:52:08.276Z,99387.32
2019-05-22T06:54:38.516Z,99402.02
2019-05-22T06:57:13.806Z,99387.55
2019-05-22T06:59:43.733Z,99390.20
2019-05-22T07:02:16.325Z,99387.27
2019-05-22T07:04:46.354Z,99383.37
2019-05-22T07:07:15.657Z,99378.72
2019-05-22T07:09:45.692Z,99382.41
2019-05-22T07:12:18.234Z,99380.23
2019-05-22T07:15:02.571Z,99376.64
2019-05-22T07:17:31.746Z,99370.33
2019-05-22T07:20:02.430Z,99371.40
2019-05-22T07:22:32.555Z,99367.45
2019-05-22T07:25:01.763Z,99360.81
2019-05-22T07:27:31.781Z,99366.78
2019-05-22T07:30:00.900Z,99361.11
2019-05-22T07:32:31.221Z,99360.55
2019-05-22T07:35:00.438Z,99362.27
2019-05-22T07:37:30.272Z,99365.95
2019-05-22T07:39:59.315Z,99368.27
2019-05-22T07:42:28.485Z,99371.52
2019-05-22T07:44:57.533Z,99372.17
2019-05-22T07:47:27.068Z,99356.12
2019-05-22T07:49:56.110Z,99359.75
2019-05-22T07:52:25.568Z,99347.05
2019-05-22T07:54:54.710Z,99343.68
2019-05-22T07:57:24.729Z,99337.19
2019-05-22T07:59:54.056Z,99336.75
2019-05-22T08:02:25.679Z,99331.60
2019-05-22T08:04:55.092Z,99329.09
2019-05-22T08:07:28.394Z,99334.45
2019-05-22T08:09:57.509Z,99332.59
2019-05-22T08:12:27.543Z,99328.53
2019-05-22T08:14:56.741Z,99317.92
2019-05-22T08:17:27.336Z,99326.75
2019-05-22T08:19:56.384Z,99317.47
2019-05-22T08:22:26.103Z,99315.06
2019-05-22T08:24:55.658Z,99317.62
2019-05-22T08:27:24.768Z,99317.46
2019-05-22T08:29:57.023Z,99320.13
2019-05-22T08:32:26.140Z,99316.02
2019-05-22T08:34:55.286Z,99305.50
2019-05-22T08:37:30.112Z,99299.81
2019-05-22T08:40:00.947Z,99296.45
2019-05-22T08:42:31.734Z,99291.15
2019-05-22T08:45:01.756Z,99294.16
2019-05-22T08:47:30.816Z,99291.79
2019-05-22T08:50:00.339Z,99293.72
2019-05-22T08:52:30.546Z,99294.46
2019-05-22T08:55:00.165Z,99294.20
2019-05-22T08:57:30.199Z,99292.90
2019-05-22T08:59:59.623Z,99285.48
2019-05-22T09:02:28.941Z,99284.61
2019-05-22T09:04:58.530Z,99284.77
2019-05-22T09:07:27.852Z,99281.58
2019-05-22T09:09:57.386Z,99288.71
2019-05-22T09:12:26.622Z,99293.77
2019-05-22T09:14:55.751Z,99296.27
2019-05-22T09:17:24.983Z,99294.55
2019-05-22T09:19:54.061Z,99288.94
2019-05-22T09:22:37.816Z,99288.92
2019-05-22T09:24:53.952Z,99294.31
2019-05-22T09:27:23.279Z,99295.84
2019-05-22T09:29:52.508Z,99287.83
2019-05-22T09:32:21.578Z,99291.89
2019-05-22T09:34:51.094Z,99286.36
2019-05-22T09:37:20.225Z,99280.30
2019-05-22T09:39:49.769Z,99277.30
2019-05-22T09:42:19.233Z,99272.68
2019-05-22T09:44:48.452Z,99275.38
2019-05-22T09:47:20.503Z,99272.30
2019-05-22T09:49:49.638Z,99268.72
2019-05-22T09:52:18.966Z,99272.48
2019-05-22T09:54:48.479Z,99265.09
2019-05-22T09:57:17.921Z,99270.95
2019-05-22T09:59:46.981Z,99258.90
2019-05-22T10:02:16.402Z,99257.80
2019-05-22T10:04:45.751Z,99260.93
2019-05-22T10:07:15.272Z,99264.27
2019-05-22T10:09:44.623Z,99266.65
2019-05-22T10:12:13.749Z,99256.59
2019-05-22T10:14:43.454Z,99256.98
2019-05-22T10:17:13.106Z,99257.17
2019-05-22T10:19:42.715Z,99251.25
2019-05-22T10:22:11.947Z,99246.08
2019-05-22T10:24:41.395Z,99255.58
2019-05-22T10:27:11.512Z,99241.76
2019-05-22T10:29:40.676Z,99231.62
2019-05-22T10:32:10.007Z,99224.31
2019-05-22T10:34:39.247Z,99223.87
2019-05-22T10:37:09.371Z,99236.31
2019-05-22T10:39:40.019Z,99230.31
2019-05-22T10:42:09.139Z,99222.17
2019-05-22T10:44:38.382Z,99217.95
2019-05-22T10:47:08.107Z,99221.36
2019-05-22T10:49:37.946Z,99218.41
2019-05-22T10:52:07.621Z,99223.46
2019-05-22T10:54:36.752Z,99221.33
2019-05-22T10:57:06.499Z,99214.91
2019-05-22T10:59:35.570Z,99227.61
2019-05-22T11:02:04.712Z,99223.22
2019-05-22T11:04:34.647Z,99216.39
2019-05-22T11:07:06.592Z,99220.83
2019-05-22T11:09:36.110Z,99216.24
2019-05-22T11:12:06.714Z,99220.97
2019-05-22T11:14:36.244Z,99212.88
2019-05-22T11:17:05.389Z,99216.48
2019-05-22T11:19:34.441Z,99213.47
2019-05-22T11:22:05.102Z,99218.52
2019-05-22T11:24:34.508Z,99207.92
2019-05-22T11:27:03.753Z,99201.81
2019-05-22T11:29:33.353Z,99204.91
2019-05-22T11:32:03.948Z,99195.73
2019-05-22T11:34:33.426Z,99191.15
2019-05-22T11:37:03.545Z,99191.36
2019-05-22T11:39:39.410Z,99189.73
2019-05-22T11:42:05.969Z,99187.42
2019-05-22T11:44:35.184Z,99189.09
2019-05-22T11:47:06.530Z,99190.77
2019-05-22T11:49:36.341Z,99189.64
2019-05-22T11:52:06.466Z,99190.39
2019-05-22T11:54:36.291Z,99191.94
2019-05-22T11:57:05.449Z,99188.19
2019-05-22T11:59:36.596Z,99186.92
2019-05-22T12:02:07.230Z,99182.11
2019-05-22T12:04:47.476Z,99180.00
2019-05-22T12:07:07.634Z,99179.41
2019-05-22T12:09:37.063Z,99181.53
2019-05-22T12:12:06.304Z,99181.12
2019-05-22T12:14:35.926Z,99184.54
2019-05-22T12:17:06.048Z,99172.48
2019-05-22T12:19:35.571Z,99168.73
2019-05-22T12:22:05.297Z,99166.84
2019-05-22T12:24:37.173Z,99168.20
2019-05-22T12:27:06.879Z,99175.19
2019-05-22T12:29:38.100Z,99165.05
2019-05-22T12:32:09.480Z,99168.09
2019-05-22T12:34:38.918Z,99164.58
2019-05-22T12:37:08.963Z,99160.19
2019-05-22T12:39:40.049Z,99143.75
2019-05-22T12:42:11.070Z,99155.48
2019-05-22T12:44:41.009Z,99149.28
2019-05-22T12:47:11.633Z,99138.30
2019-05-22T12:49:40.986Z,99126.13
2019-05-22T12:52:10.453Z,99131.38
2019-05-22T12:54:46.931Z,99131.30
2019-05-22T12:57:11.138Z,99122.06
2019-05-22T12:59:41.061Z,99118.13
2019-05-22T13:02:11.197Z,99120.12
2019-05-22T13:04:41.129Z,99124.11
2019-05-22T13:07:10.660Z,99136.11
2019-05-22T13:09:40.701Z,99124.48
2019-05-22T13:12:12.376Z,99122.28
2019-05-22T13:14:41.708Z,99114.17
2019-05-22T13:17:12.931Z,99123.51
2019-05-22T13:19:42.842Z,99121.55
2019-05-22T13:22:15.368Z,99120.55
2019-05-22T13:24:44.927Z,99119.66
2019-05-22T13:27:17.276Z,99117.89
2019-05-22T13:29:48.510Z,99124.35
2019-05-22T13:32:20.082Z,99123.06
2019-05-22T13:34:50.408Z,99125.80
2019-05-22T13:37:19.551Z,99128.03
2019-05-22T13:39:48.623Z,99121.95
2019-05-22T13:42:18.337Z,99121.03
2019-05-22T13:44:48.129Z,99111.97
2019-05-22T13:47:17.351Z,99108.13
2019-05-22T13:49:47.508Z,99101.77
2019-05-22T13:52:16.897Z,99107.73
2019-05-22T13:54:46.411Z,99110.03
2019-05-22T13:57:15.510Z,99107.34
2019-05-22T13:59:44.777Z,99106.14
2019-05-22T14:02:14.411Z,99105.41
2019-05-22T14:04:44.028Z,99089.89
2019-05-22T14:07:13.357Z,99101.55
2019-05-22T14:09:43.687Z,99104.83
2019-05-22T14:12:13.525Z,99110.48
2019-05-22T14:14:43.284Z,99102.30
2019-05-22T14:17:14.415Z,99107.91
2019-05-22T14:19:43.588Z,99102.94
2019-05-22T14:22:12.704Z,99108.07
2019-05-22T14:24:41.953Z,99107.19
2019-05-22T14:27:11.085Z,99103.53
2019-05-22T14:29:40.713Z,99101.87
2019-05-22T14:32:10.845Z,99103.06
2019-05-22T14:34:40.019Z,99106.05
2019-05-22T14:37:11.146Z,99108.79
2019-05-22T14:39:40.797Z,99103.45
2019-05-22T14:42:10.358Z,99100.17
2019-05-22T14:44:39.781Z,99095.84
2019-05-22T14:47:14.698Z,99092.48
2019-05-22T14:49:40.129Z,99085.11
2019-05-22T14:52:10.154Z,99082.07
2019-05-22T14:54:39.358Z,99081.33
2019-05-22T14:57:08.995Z,99074.91
2019-05-22T14:59:38.344Z,99072.45
2019-05-22T15:02:08.270Z,99063.66
2019-05-22T15:04:37.922Z,99054.45
2019-05-22T15:07:08.557Z,99056.09
2019-05-22T15:09:37.595Z,99055.09
2019-05-22T15:12:06.943Z,99047.36
2019-05-22T15:14:36.121Z,99046.86
2019-05-22T15:17:05.451Z,99043.83
2019-05-22T15:19:34.693Z,99035.06
2019-05-22T15:22:05.390Z,99034.09
2019-05-22T15:24:34.928Z,99032.61
2019-05-22T15:27:05.643Z,99031.38
2019-05-22T15:29:34.852Z,99033.91
2019-05-22T15:32:04.482Z,99028.34
2019-05-22T15:34:34.540Z,99028.80
2019-05-22T15:37:04.864Z,99037.20
2019-05-22T15:39:35.912Z,99034.23
2019-05-22T15:42:06.213Z,99034.57
2019-05-22T15:44:35.580Z,99027.23
2019-05-22T15:47:05.795Z,99033.16
2019-05-22T15:49:35.643Z,99035.69
2019-05-22T15:52:09.076Z,99041.36
2019-05-22T15:54:38.753Z,99036.72
2019-05-22T15:57:09.940Z,99034.84
2019-05-22T15:59:40.316Z,99023.66
2019-05-22T16:02:11.141Z,99032.44
2019-05-22T16:04:41.260Z,99026.23
2019-05-22T16:07:11.317Z,99021.14
2019-05-22T16:09:43.456Z,99009.06
2019-05-22T16:12:13.235Z,99012.52
2019-05-22T16:14:42.397Z,99020.63
2019-05-22T16:17:12.035Z,99012.81
2019-05-22T16:19:41.411Z,99014.11
2019-05-22T16:22:11.356Z,99015.28
2019-05-22T16:24:41.197Z,99020.28
2019-05-22T16:27:12.844Z,99007.41
2019-05-22T16:29:42.184Z,99020.06
2019-05-22T16:32:14.970Z,99009.20
2019-05-22T16:34:44.691Z,99007.22
2019-05-22T16:37:14.430Z,99006.67
2019-05-22T16:39:44.095Z,99010.70
2019-05-22T16:42:13.839Z,99008.42
2019-05-22T16:44:43.555Z,99004.89
2019-05-22T16:47:13.119Z,99003.14
2019-05-22T16:49:42.419Z,98996.61
2019-05-22T16:52:14.283Z,99003.02
2019-05-22T16:54:45.033Z,99009.25
2019-05-22T16:57:15.369Z,99000.13
2019-05-22T16:59:46.130Z,99004.36
2019-05-22T17:02:18.061Z,99000.89
2019-05-22T17:04:48.800Z,99005.98
2019-05-22T17:07:18.735Z,99006.58
2019-05-22T17:09:49.700Z,99006.58
2019-05-22T17:12:18.820Z,99003.44
2019-05-22T17:14:49.657Z,99005.27
2019-05-22T17:17:20.163Z,99018.11
2019-05-22T17:19:50.383Z,99018.11
2019-05-22T17:22:20.258Z,99013.94
2019-05-22T17:24:49.622Z,99014.11
2019-05-22T17:27:20.477Z,99007.41
2019-05-22T17:29:51.686Z,99007.41
2019-05-22T17:32:22.028Z,99003.59
2019-05-22T17:34:51.570Z,99001.00
2019-05-22T17:37:21.429Z,98997.86
2019-05-22T17:39:51.738Z,98998.47
2019-05-22T17:42:23.440Z,99000.89
2019-05-22T17:44:53.183Z,99000.87
2019-05-22T17:47:24.856Z,99000.87
2019-05-22T17:49:54.708Z,98996.53
2019-05-22T17:52:26.184Z,99004.59
2019-05-22T17:54:56.117Z,99007.86
2019-05-22T17:57:25.329Z,99007.86
2019-05-22T17:59:55.761Z,99005.13
2019-05-22T18:02:26.775Z,99005.47
2019-05-22T18:04:56.627Z,99004.20
2019-05-22T18:07:26.484Z,99004.90
2019-05-22T18:09:55.892Z,99001.89
2019-05-22T18:12:25.825Z,99001.89
2019-05-22T18:14:56.255Z,99004.88
2019-05-22T18:17:26.577Z,99004.88
2019-05-22T18:19:56.207Z,99005.34
2019-05-22T18:22:25.632Z,99005.64
2019-05-22T18:24:55.191Z,99006.20
2019-05-22T18:27:25.429Z,99007.61
2019-05-22T18:29:55.292Z,99007.61
2019-05-22T18:32:24.549Z,99010.09
2019-05-22T18:34:54.082Z,99011.41
2019-05-22T18:37:23.539Z,99011.41
2019-05-22T18:39:53.694Z,99016.94
2019-05-22T18:42:24.326Z,99018.83
2019-05-22T18:44:53.768Z,99019.89
2019-05-22T18:47:23.727Z,99025.79
2019-05-22T18:49:53.680Z,99025.79
2019-05-22T18:52:38.263Z,99028.66
2019-05-22T18:54:54.651Z,99028.66
2019-05-22T18:57:24.084Z,99027.34
2019-05-22T19:00:00.449Z,99034.73
2019-05-22T19:02:25.063Z,99034.52
2019-05-22T19:04:54.491Z,99036.25
2019-05-22T19:07:23.842Z,99027.70
2019-05-22T19:09:53.209Z,99045.44
2019-05-22T19:12:22.631Z,99045.44
2019-05-22T19:14:52.261Z,99055.47
2019-05-22T19:17:22.702Z,99065.02
2019-05-22T19:19:52.153Z,99065.02
2019-05-22T19:22:21.572Z,99076.53
2019-05-22T19:24:52.556Z,99085.38
2019-05-22T19:27:21.958Z,99089.84
2019-05-22T19:29:51.412Z,99089.84
2019-05-22T19:32:21.141Z,99089.17
2019-05-22T19:34:50.679Z,99089.17
2019-05-22T19:37:20.840Z,99094.91
2019-05-22T19:39:50.978Z,99090.66
2019-05-22T19:42:20.428Z,99097.89
2019-05-22T19:44:49.955Z,99090.11
2019-05-22T19:47:20.970Z,99090.11
2019-05-22T19:49:50.397Z,99094.37
2019-05-22T19:52:22.789Z,99094.37
2019-05-22T19:54:52.991Z,99101.22
2019-05-22T19:57:22.995Z,99101.22
2019-05-22T19:59:52.442Z,99105.86
2019-05-22T20:02:23.070Z,99113.09
2019-05-22T20:04:52.623Z,99119.77
2019-05-22T20:07:22.475Z,99120.86
2019-05-22T20:09:51.901Z,99131.07
2019-05-22T20:12:24.842Z,99138.09
2019-05-22T20:14:52.926Z,99142.24
2019-05-22T20:17:22.352Z,99142.24
2019-05-22T20:19:52.561Z,99150.95
2019-05-22T20:22:22.450Z,99146.94
2019-05-22T20:24:51.871Z,99141.96
2019-05-22T20:27:21.920Z,99139.95
2019-05-22T20:29:51.774Z,99135.95
2019-05-22T20:32:22.255Z,99135.13
2019-05-22T20:34:51.669Z,99136.45
2019-05-22T20:37:21.535Z,99136.45
2019-05-22T20:39:50.909Z,99143.80
2019-05-22T20:42:21.029Z,99143.97
2019-05-22T20:44:51.347Z,99147.64
2019-05-22T20:47:24.460Z,99149.66
2019-05-22T20:49:54.986Z,99152.33
2019-05-22T20:52:24.885Z,99152.33
2019-05-22T20:54:54.748Z,99152.33
2019-05-22T20:57:25.881Z,99150.79
2019-05-22T20:59:56.317Z,99145.58
2019-05-22T21:02:27.223Z,99145.58
2019-05-22T21:04:56.988Z,99098.88
2019-05-22T21:07:36.248Z,99098.88
2019-05-22T21:10:09.189Z,99163.81
2019-05-22T21:12:39.202Z,99175.46
2019-05-22T21:15:08.787Z,99175.46
2019-05-22T21:17:38.418Z,99179.49
2019-05-22T21:20:12.021Z,99182.81
2019-05-22T21:22:42.151Z,99182.81
2019-05-22T21:25:12.183Z,99204.77
2019-05-22T21:27:42.627Z,99204.77
2019-05-22T21:30:12.847Z,99207.25
2019-05-22T21:32:44.186Z,99206.38
2019-05-22T21:35:16.611Z,99200.51
2019-05-22T21:37:46.307Z,99213.29
2019-05-22T21:40:17.983Z,99213.00
2019-05-22T21:42:48.456Z,99217.65
2019-05-22T21:45:18.170Z,99230.33
2019-05-22T21:47:47.690Z,99239.19
2019-05-22T21:50:17.828Z,99239.19
2019-05-22T21:52:47.458Z,99235.64
2019-05-22T21:55:19.488Z,99245.34
2019-05-22T21:57:48.927Z,99245.34
2019-05-22T22:00:40.996Z,99240.58
2019-05-22T22:03:19.131Z,99240.58
2019-05-22T22:05:49.445Z,99245.91
2019-05-22T22:08:18.882Z,99243.88
2019-05-22T22:10:49.523Z,99234.62
2019-05-22T22:13:19.742Z,99233.30
2019-05-22T22:15:49.474Z,99226.82
2019-05-22T22:18:19.292Z,99224.16
2019-05-22T22:20:49.026Z,99218.33
2019-05-22T22:23:18.544Z,99225.25
2019-05-22T22:25:47.960Z,99220.98
2019-05-22T22:28:18.408Z,99220.98
2019-05-22T22:30:52.098Z,99217.31
2019-05-22T22:33:29.881Z,99213.95
2019-05-22T22:36:01.818Z,99206.97
2019-05-22T22:38:33.034Z,99206.55
2019-05-22T22:41:02.548Z,99201.66
2019-05-22T22:43:33.096Z,99205.66
2019-05-22T22:46:06.584Z,99205.66
2019-05-22T22:48:38.304Z,99205.84
2019-05-22T22:51:12.615Z,99205.00
2019-05-22T22:53:43.920Z,99222.95
2019-05-22T22:56:15.568Z,99241.32
2019-05-22T22:58:45.793Z,99241.32
2019-05-22T23:01:18.117Z,99230.26
2019-05-22T23:03:50.156Z,99230.26
2019-05-22T23:06:20.181Z,99232.80
2019-05-22T23:08:50.390Z,99222.95
2019-05-22T23:11:21.503Z,99225.30
2019-05-22T23:13:52.707Z,99225.30
2019-05-22T23:16:23.614Z,99222.28
2019-05-22T23:19:25.614Z,99224.19
2019-05-22T23:21:55.296Z,99221.63
2019-05-22T23:24:26.033Z,99221.63
2019-05-22T23:26:55.737Z,99216.09
2019-05-22T23:29:25.586Z,99216.03
2019-05-22T23:31:56.407Z,99209.05
2019-05-22T23:34:26.736Z,99209.05
2019-05-22T23:36:58.062Z,99208.02
2019-05-22T23:39:30.777Z,99203.67
2019-05-22T23:42:03.273Z,99203.67
2019-05-22T23:44:36.717Z,99204.80
2019-05-22T23:47:07.701Z,99207.47
2019-05-22T23:49:39.626Z,99203.71
2019-05-22T23:52:10.390Z,99199.48
2019-05-22T23:54:41.528Z,99201.31
2019-05-22T23:57:12.917Z,99199.27
2019-05-22T23:59:42.543Z,99200.16
